松山國際航空站 - 塔臺

METAR RCSS 181500Z VRB02KT 9999 -RA FEW016 SCT040 BKN120 27/25 Q1006 NOSIG RMK A2971=

站台狀態:Online
最後更新:2019-08-18 23:15:02